createdAt,value
2017-12-20T00:00:30.054Z,91.33
2017-12-20T00:02:57.578Z,91.26
2017-12-20T00:05:25.100Z,91.36
2017-12-20T00:07:52.619Z,91.23
2017-12-20T00:10:20.142Z,91.42
2017-12-20T00:12:47.693Z,91.33
2017-12-20T00:15:15.222Z,91.74
2017-12-20T00:17:42.757Z,91.72
2017-12-20T00:20:10.291Z,91.72
2017-12-20T00:22:37.817Z,91.71
2017-12-20T00:25:05.351Z,91.33
2017-12-20T00:27:32.882Z,90.85
2017-12-20T00:30:00.490Z,90.76
2017-12-20T00:32:28.025Z,91.13
2017-12-20T00:34:55.562Z,91.48
2017-12-20T00:37:23.092Z,91.71
2017-12-20T00:39:50.625Z,91.63
2017-12-20T00:42:18.153Z,91.75
2017-12-20T00:44:45.687Z,91.54
2017-12-20T00:47:13.214Z,91.49
2017-12-20T00:49:40.760Z,91.39
2017-12-20T00:52:09.071Z,91.57
2017-12-20T00:54:36.595Z,91.77
2017-12-20T00:57:04.122Z,91.56
2017-12-20T00:59:31.656Z,91.56
2017-12-20T01:01:59.228Z,92.36
2017-12-20T01:04:26.767Z,92.26
2017-12-20T01:06:54.296Z,92.25
2017-12-20T01:09:21.826Z,92.12
2017-12-20T01:11:49.377Z,92.59
2017-12-20T01:14:16.913Z,91.98
2017-12-20T01:16:44.459Z,91.90
2017-12-20T01:19:11.983Z,91.59
2017-12-20T01:21:39.512Z,91.37
2017-12-20T01:24:07.028Z,91.43
2017-12-20T01:26:34.546Z,91.48
2017-12-20T01:29:02.992Z,91.37
2017-12-20T01:31:30.526Z,91.21
2017-12-20T01:33:58.058Z,91.32
2017-12-20T01:36:25.580Z,91.13
2017-12-20T01:38:53.104Z,91.02
2017-12-20T01:41:20.630Z,90.97
2017-12-20T01:43:48.972Z,91.12
2017-12-20T01:46:16.500Z,91.51
2017-12-20T01:48:44.032Z,91.64
2017-12-20T01:51:11.555Z,91.70
2017-12-20T01:53:39.077Z,91.82
2017-12-20T01:56:06.600Z,91.89
2017-12-20T01:58:34.120Z,91.99
2017-12-20T02:01:01.653Z,91.67
2017-12-20T02:03:29.174Z,91.49
2017-12-20T02:05:56.701Z,91.37
2017-12-20T02:08:24.230Z,91.31
2017-12-20T02:10:51.752Z,91.17
2017-12-20T02:13:19.291Z,91.12
2017-12-20T02:15:46.812Z,90.93
2017-12-20T02:18:14.337Z,91.25
2017-12-20T02:20:41.863Z,91.48
2017-12-20T02:23:09.387Z,91.26
2017-12-20T02:25:36.935Z,91.15
2017-12-20T02:28:04.465Z,90.98
2017-12-20T02:30:31.996Z,91.11
2017-12-20T02:32:59.524Z,90.95
2017-12-20T02:35:27.054Z,91.00
2017-12-20T02:37:54.610Z,90.92
2017-12-20T02:40:22.139Z,90.90
2017-12-20T02:42:49.668Z,90.80
2017-12-20T02:45:17.193Z,90.56
2017-12-20T02:47:44.727Z,90.60
2017-12-20T02:50:12.272Z,90.40
2017-12-20T02:52:39.799Z,90.54
2017-12-20T02:55:07.327Z,90.95
2017-12-20T02:57:34.841Z,90.38
2017-12-20T03:00:02.374Z,90.40
2017-12-20T03:02:29.893Z,90.52
2017-12-20T03:04:57.410Z,90.92
2017-12-20T03:07:24.929Z,90.46
2017-12-20T03:09:52.445Z,90.19
2017-12-20T03:12:19.971Z,90.30
2017-12-20T03:14:47.501Z,90.57
2017-12-20T03:17:15.026Z,90.61
2017-12-20T03:19:42.547Z,90.54
2017-12-20T03:22:10.080Z,90.63
2017-12-20T03:24:37.634Z,90.98
2017-12-20T03:27:05.165Z,91.21
2017-12-20T03:29:32.686Z,91.11
2017-12-20T03:32:00.213Z,91.27
2017-12-20T03:34:27.732Z,91.29
2017-12-20T03:36:55.272Z,91.26
2017-12-20T03:39:22.794Z,91.25
2017-12-20T03:41:50.316Z,91.18
2017-12-20T03:44:17.849Z,91.23
2017-12-20T03:46:45.371Z,91.37
2017-12-20T03:49:12.895Z,91.61
2017-12-20T03:51:40.452Z,91.37
2017-12-20T03:54:07.983Z,91.52
2017-12-20T03:56:35.571Z,91.45
2017-12-20T03:59:03.097Z,91.29
2017-12-20T04:01:30.621Z,90.95
2017-12-20T04:03:58.157Z,91.06
2017-12-20T04:06:25.709Z,91.05
2017-12-20T04:08:53.241Z,91.05
2017-12-20T04:11:20.758Z,91.28
2017-12-20T04:13:48.289Z,91.12
2017-12-20T04:16:15.817Z,91.35
2017-12-20T04:18:43.364Z,91.36
2017-12-20T04:21:10.894Z,91.27
2017-12-20T04:23:38.427Z,91.22
2017-12-20T04:26:05.942Z,91.34
2017-12-20T04:28:33.472Z,91.49
2017-12-20T04:31:00.989Z,91.66
2017-12-20T04:33:28.517Z,91.47
2017-12-20T04:35:56.046Z,91.53
2017-12-20T04:38:23.584Z,91.61
2017-12-20T04:40:51.111Z,91.71
2017-12-20T04:43:18.631Z,92.00
2017-12-20T04:45:46.159Z,92.02
2017-12-20T04:48:13.677Z,91.91
2017-12-20T04:50:41.201Z,91.62
2017-12-20T04:53:08.738Z,91.41
2017-12-20T04:55:36.280Z,91.66
2017-12-20T04:58:03.807Z,91.76
2017-12-20T05:00:31.367Z,91.84
2017-12-20T05:02:58.905Z,91.80
2017-12-20T05:05:26.438Z,91.75
2017-12-20T05:07:53.979Z,91.64
2017-12-20T05:10:21.506Z,91.68
2017-12-20T05:12:49.046Z,91.78
2017-12-20T05:15:16.583Z,91.56
2017-12-20T05:17:44.107Z,91.60
2017-12-20T05:20:11.627Z,91.52
2017-12-20T05:22:39.150Z,91.92
2017-12-20T05:25:06.678Z,91.95
2017-12-20T05:27:34.203Z,91.97
2017-12-20T05:30:01.728Z,92.08
2017-12-20T05:32:29.269Z,92.22
2017-12-20T05:34:56.794Z,92.33
2017-12-20T05:37:24.321Z,92.14
2017-12-20T05:39:51.838Z,91.77
2017-12-20T05:42:19.368Z,91.76
2017-12-20T05:44:46.890Z,91.83
2017-12-20T05:47:14.442Z,91.70
2017-12-20T05:49:41.973Z,91.96
2017-12-20T05:52:09.490Z,92.14
2017-12-20T05:54:37.016Z,92.03
2017-12-20T05:57:04.550Z,91.92
2017-12-20T05:59:32.075Z,91.84
2017-12-20T06:01:59.581Z,91.69
2017-12-20T06:04:27.103Z,91.83
2017-12-20T06:06:54.636Z,91.62
2017-12-20T06:09:22.177Z,91.59
2017-12-20T06:11:49.705Z,91.58
2017-12-20T06:14:17.250Z,91.70
2017-12-20T06:16:44.779Z,92.06
2017-12-20T06:19:12.297Z,92.07
2017-12-20T06:21:39.841Z,91.96
2017-12-20T06:24:07.379Z,91.75
2017-12-20T06:26:34.922Z,91.92
2017-12-20T06:29:02.454Z,91.81
2017-12-20T06:31:29.980Z,91.71
2017-12-20T06:33:57.497Z,91.83
2017-12-20T06:36:25.028Z,91.55
2017-12-20T06:38:52.553Z,91.58
2017-12-20T06:41:20.069Z,91.44
2017-12-20T06:43:47.584Z,91.38
2017-12-20T06:46:15.137Z,91.20
2017-12-20T06:48:42.659Z,91.45
2017-12-20T06:51:10.174Z,91.39
2017-12-20T06:53:37.687Z,92.08
2017-12-20T06:56:05.219Z,91.78
2017-12-20T06:58:32.745Z,91.60
2017-12-20T07:01:00.270Z,91.60
2017-12-20T07:03:27.791Z,91.46
2017-12-20T07:05:55.312Z,91.51
2017-12-20T07:08:22.841Z,91.55
2017-12-20T07:10:50.371Z,91.40
2017-12-20T07:13:17.892Z,91.21
2017-12-20T07:15:45.413Z,90.92
2017-12-20T07:18:12.944Z,90.82
2017-12-20T07:20:40.463Z,90.91
2017-12-20T07:23:07.989Z,90.88
2017-12-20T07:25:35.516Z,90.87
2017-12-20T07:28:03.038Z,91.15
2017-12-20T07:30:30.564Z,90.90
2017-12-20T07:32:58.090Z,90.70
2017-12-20T07:35:25.619Z,90.64
2017-12-20T07:37:53.142Z,90.80
2017-12-20T07:40:20.669Z,90.95
2017-12-20T07:42:48.185Z,90.96
2017-12-20T07:45:15.711Z,90.97
2017-12-20T07:47:43.229Z,90.97
2017-12-20T07:50:10.863Z,91.10
2017-12-20T07:52:38.384Z,91.09
2017-12-20T07:55:05.898Z,90.76
2017-12-20T07:57:33.445Z,90.90
2017-12-20T08:00:00.977Z,90.84
2017-12-20T08:02:28.493Z,90.67
2017-12-20T08:04:56.017Z,91.35
2017-12-20T08:07:23.552Z,90.91
2017-12-20T08:09:51.071Z,90.85
2017-12-20T08:12:18.599Z,90.42
2017-12-20T08:14:46.133Z,90.34
2017-12-20T08:17:13.659Z,90.45
2017-12-20T08:19:41.180Z,90.18
2017-12-20T08:22:08.706Z,89.91
2017-12-20T08:24:36.232Z,89.63
2017-12-20T08:27:03.763Z,89.51
2017-12-20T08:29:31.286Z,89.67
2017-12-20T08:31:58.816Z,89.91
2017-12-20T08:34:26.339Z,89.72
2017-12-20T08:36:53.860Z,89.26
2017-12-20T08:39:21.395Z,89.00
2017-12-20T08:41:48.922Z,89.56
2017-12-20T08:44:16.462Z,89.04
2017-12-20T08:46:44.005Z,88.71
2017-12-20T08:49:12.248Z,88.33
2017-12-20T08:51:39.843Z,88.34
2017-12-20T08:54:07.370Z,88.51
2017-12-20T08:56:34.897Z,88.16
2017-12-20T08:59:02.419Z,88.40
2017-12-20T09:01:29.946Z,88.57
2017-12-20T09:03:57.470Z,88.43
2017-12-20T09:06:24.995Z,88.77
2017-12-20T09:08:52.522Z,88.43
2017-12-20T09:11:20.053Z,88.57
2017-12-20T09:13:47.570Z,87.90
2017-12-20T09:16:15.136Z,87.67
2017-12-20T09:18:42.661Z,87.83
2017-12-20T09:21:10.187Z,87.95
2017-12-20T09:23:37.706Z,87.96
2017-12-20T09:26:05.281Z,88.12
2017-12-20T09:28:32.820Z,87.98
2017-12-20T09:31:00.357Z,88.26
2017-12-20T09:33:27.882Z,87.81
2017-12-20T09:35:55.408Z,88.23
2017-12-20T09:38:23.039Z,88.34
2017-12-20T09:40:50.563Z,88.88
2017-12-20T09:43:18.097Z,88.49
2017-12-20T09:45:45.622Z,88.90
2017-12-20T09:48:13.143Z,88.55
2017-12-20T09:50:40.690Z,88.76
2017-12-20T09:53:08.216Z,88.58
2017-12-20T09:55:35.752Z,88.54
2017-12-20T09:58:03.271Z,89.31
2017-12-20T10:00:30.791Z,88.92
2017-12-20T10:02:58.325Z,89.22
2017-12-20T10:05:25.845Z,88.85
2017-12-20T10:07:53.435Z,88.71
2017-12-20T10:10:20.984Z,89.01
2017-12-20T10:12:48.530Z,89.52
2017-12-20T10:15:16.048Z,89.50
2017-12-20T10:17:43.574Z,89.25
2017-12-20T10:20:11.098Z,89.30
2017-12-20T10:22:38.628Z,88.73
2017-12-20T10:25:06.159Z,89.55
2017-12-20T10:27:33.679Z,89.32
2017-12-20T10:30:01.225Z,89.12
2017-12-20T10:32:28.744Z,89.13
2017-12-20T10:34:56.280Z,89.25
2017-12-20T10:37:23.803Z,88.81
2017-12-20T10:39:51.323Z,88.28
2017-12-20T10:42:18.842Z,88.10
2017-12-20T10:44:46.378Z,87.71
2017-12-20T10:47:13.907Z,87.46
2017-12-20T10:49:41.425Z,88.40
2017-12-20T10:52:08.988Z,88.97
2017-12-20T10:54:36.514Z,88.96
2017-12-20T10:57:04.056Z,88.53
2017-12-20T10:59:31.583Z,88.07
2017-12-20T11:01:59.098Z,88.03
2017-12-20T11:04:26.613Z,87.18
2017-12-20T11:06:54.150Z,87.51
2017-12-20T11:09:21.674Z,86.87
2017-12-20T11:11:49.208Z,86.80
2017-12-20T11:14:16.734Z,86.24
2017-12-20T11:16:44.252Z,86.23
2017-12-20T11:19:11.771Z,86.19
2017-12-20T11:21:39.315Z,86.41
2017-12-20T11:24:06.827Z,87.33
2017-12-20T11:26:34.393Z,86.71
2017-12-20T11:29:01.938Z,87.03
2017-12-20T11:31:29.467Z,88.06
2017-12-20T11:33:56.998Z,87.98
2017-12-20T11:36:24.517Z,88.39
2017-12-20T11:38:52.029Z,88.53
2017-12-20T11:41:19.536Z,89.05
2017-12-20T11:43:47.050Z,89.45
2017-12-20T11:46:14.574Z,89.68
2017-12-20T11:48:42.093Z,89.17
2017-12-20T11:51:09.626Z,88.88
2017-12-20T11:53:37.167Z,88.49
2017-12-20T11:56:04.687Z,88.66
2017-12-20T11:58:32.224Z,88.89
2017-12-20T12:00:59.785Z,88.77
2017-12-20T12:03:27.441Z,88.77
2017-12-20T12:05:54.967Z,89.19
2017-12-20T12:08:22.494Z,89.75
2017-12-20T12:10:50.012Z,89.44
2017-12-20T12:13:17.525Z,89.16
2017-12-20T12:15:45.045Z,89.32
2017-12-20T12:18:12.573Z,89.60
2017-12-20T12:20:40.099Z,89.50
2017-12-20T12:23:07.618Z,89.91
2017-12-20T12:25:35.148Z,89.79
2017-12-20T12:28:03.063Z,89.62
2017-12-20T12:30:30.581Z,89.67
2017-12-20T12:32:58.108Z,89.80
2017-12-20T12:35:25.646Z,89.69
2017-12-20T12:37:53.204Z,89.97
2017-12-20T12:40:20.741Z,90.04
2017-12-20T12:42:48.274Z,90.27
2017-12-20T12:45:15.792Z,90.05
2017-12-20T12:47:43.316Z,90.15
2017-12-20T12:50:10.849Z,90.00
2017-12-20T12:52:38.369Z,90.01
2017-12-20T12:55:05.924Z,90.10
2017-12-20T12:57:33.440Z,90.23
2017-12-20T13:00:00.954Z,90.25
2017-12-20T13:02:28.473Z,90.05
2017-12-20T13:04:55.998Z,89.99
2017-12-20T13:07:23.562Z,90.08
2017-12-20T13:09:51.077Z,89.94
2017-12-20T13:12:18.608Z,90.07
2017-12-20T13:14:47.225Z,89.53
2017-12-20T13:17:14.752Z,89.34
2017-12-20T13:19:42.279Z,89.56
2017-12-20T13:22:09.799Z,89.46
2017-12-20T13:24:37.330Z,89.58
2017-12-20T13:27:05.139Z,89.42
2017-12-20T13:29:32.694Z,89.44
2017-12-20T13:32:00.224Z,89.37
2017-12-20T13:34:27.748Z,89.68
2017-12-20T13:36:55.278Z,89.62
2017-12-20T13:39:22.798Z,89.32
2017-12-20T13:41:50.305Z,89.36
2017-12-20T13:44:17.829Z,89.15
2017-12-20T13:46:45.370Z,89.31
2017-12-20T13:49:12.892Z,89.22
2017-12-20T13:51:40.406Z,89.34
2017-12-20T13:54:07.920Z,89.56
2017-12-20T13:56:35.432Z,89.76
2017-12-20T13:59:03.138Z,90.02
2017-12-20T14:01:30.659Z,90.29
2017-12-20T14:03:58.188Z,90.11
2017-12-20T14:06:25.713Z,90.34
2017-12-20T14:08:53.260Z,90.56
2017-12-20T14:11:20.797Z,90.49
2017-12-20T14:13:48.325Z,90.49
2017-12-20T14:16:15.910Z,91.10
2017-12-20T14:18:43.413Z,91.16
2017-12-20T14:21:10.935Z,91.13
2017-12-20T14:23:38.480Z,90.97
2017-12-20T14:26:06.000Z,91.20
2017-12-20T14:28:33.511Z,91.11
2017-12-20T14:31:01.047Z,91.54
2017-12-20T14:33:28.570Z,91.38
2017-12-20T14:35:56.089Z,91.31
2017-12-20T14:38:23.614Z,90.99
2017-12-20T14:40:51.146Z,90.67
2017-12-20T14:43:18.668Z,90.67
2017-12-20T14:45:46.189Z,90.64
2017-12-20T14:48:13.718Z,90.75
2017-12-20T14:50:41.242Z,90.73
2017-12-20T14:53:08.766Z,91.06
2017-12-20T14:55:36.298Z,91.28
2017-12-20T14:58:03.831Z,91.21
2017-12-20T15:00:31.374Z,91.14
2017-12-20T15:02:58.904Z,91.18
2017-12-20T15:05:26.441Z,91.12
2017-12-20T15:07:53.954Z,91.33
2017-12-20T15:10:21.477Z,91.64
2017-12-20T15:12:49.016Z,91.57
2017-12-20T15:15:16.539Z,91.50
2017-12-20T15:17:44.065Z,91.53
2017-12-20T15:20:11.590Z,91.60
2017-12-20T15:22:39.114Z,91.44
2017-12-20T15:25:06.645Z,91.28
2017-12-20T15:27:34.166Z,91.31
2017-12-20T15:30:01.701Z,91.24
2017-12-20T15:32:29.221Z,91.27
2017-12-20T15:34:56.749Z,91.23
2017-12-20T15:37:24.270Z,91.27
2017-12-20T15:39:51.794Z,91.57
2017-12-20T15:42:19.334Z,91.37
2017-12-20T15:44:46.879Z,91.23
2017-12-20T15:47:14.406Z,91.35
2017-12-20T15:49:41.939Z,91.35
2017-12-20T15:52:09.459Z,91.31
2017-12-20T15:54:36.987Z,91.36
2017-12-20T15:57:04.511Z,91.28
2017-12-20T15:59:32.029Z,91.38
2017-12-20T16:01:59.636Z,91.27
2017-12-20T16:04:27.162Z,91.23
2017-12-20T16:06:54.682Z,91.07
2017-12-20T16:09:22.207Z,91.15
2017-12-20T16:11:49.734Z,90.97
2017-12-20T16:14:17.250Z,90.89
2017-12-20T16:16:44.769Z,90.93
2017-12-20T16:19:12.297Z,90.79
2017-12-20T16:21:39.832Z,90.91
2017-12-20T16:24:07.354Z,90.96
2017-12-20T16:26:34.883Z,90.72
2017-12-20T16:29:02.410Z,90.68
2017-12-20T16:31:29.930Z,90.62
2017-12-20T16:33:57.454Z,90.58
2017-12-20T16:36:24.985Z,90.55
2017-12-20T16:38:52.504Z,90.54
2017-12-20T16:41:20.038Z,90.65
2017-12-20T16:43:47.563Z,90.52
2017-12-20T16:46:15.110Z,90.39
2017-12-20T16:48:42.658Z,90.41
2017-12-20T16:51:10.196Z,90.26
2017-12-20T16:53:42.698Z,90.31
2017-12-20T16:56:10.219Z,90.28
2017-12-20T16:58:37.746Z,90.28
2017-12-20T17:01:05.270Z,90.23
2017-12-20T17:03:32.790Z,90.43
2017-12-20T17:06:00.310Z,90.42
2017-12-20T17:08:27.832Z,90.38
2017-12-20T17:10:55.366Z,90.42
2017-12-20T17:13:22.895Z,90.38
2017-12-20T17:15:50.425Z,90.41
2017-12-20T17:18:17.971Z,90.42
2017-12-20T17:20:45.547Z,90.36
2017-12-20T17:23:13.080Z,90.45
2017-12-20T17:25:40.620Z,90.49
2017-12-20T17:28:08.149Z,90.42
2017-12-20T17:30:35.670Z,90.21
2017-12-20T17:33:03.194Z,90.45
2017-12-20T17:35:30.712Z,90.57
2017-12-20T17:37:58.444Z,90.59
2017-12-20T17:40:25.971Z,90.78
2017-12-20T17:42:53.488Z,90.68
2017-12-20T17:45:21.018Z,90.72
2017-12-20T17:47:48.534Z,90.57
2017-12-20T17:50:16.064Z,90.63
2017-12-20T17:52:43.616Z,90.50
2017-12-20T17:55:11.165Z,90.49
2017-12-20T17:57:38.683Z,90.39
2017-12-20T18:00:06.200Z,90.41
2017-12-20T18:02:33.729Z,90.30
2017-12-20T18:05:01.253Z,90.44
2017-12-20T18:07:28.785Z,90.41
2017-12-20T18:09:56.350Z,90.55
2017-12-20T18:12:27.046Z,90.55
2017-12-20T18:14:54.577Z,90.41
2017-12-20T18:17:22.130Z,90.44
2017-12-20T18:19:49.651Z,90.52
2017-12-20T18:22:17.181Z,90.51
2017-12-20T18:24:44.707Z,90.48
2017-12-20T18:27:12.246Z,90.40
2017-12-20T18:29:39.767Z,90.38
2017-12-20T18:32:07.295Z,90.32
2017-12-20T18:34:34.846Z,90.29
2017-12-20T18:37:02.391Z,90.43
2017-12-20T18:39:29.934Z,90.53
2017-12-20T18:41:57.462Z,90.67
2017-12-20T18:44:24.984Z,90.68
2017-12-20T18:46:52.504Z,90.57
2017-12-20T18:49:20.038Z,90.69
2017-12-20T18:51:47.558Z,90.64
2017-12-20T18:54:15.092Z,90.80
2017-12-20T18:56:42.620Z,90.68
2017-12-20T18:59:10.138Z,90.60
2017-12-20T19:01:37.714Z,90.61
2017-12-20T19:04:05.326Z,90.62
2017-12-20T19:06:32.848Z,90.71
2017-12-20T19:09:00.376Z,90.72
2017-12-20T19:11:28.104Z,90.73
2017-12-20T19:13:55.630Z,90.89
2017-12-20T19:16:23.154Z,91.12
2017-12-20T19:18:50.665Z,90.96
2017-12-20T19:21:18.210Z,90.90
2017-12-20T19:23:45.735Z,90.78
2017-12-20T19:26:13.260Z,90.97
2017-12-20T19:28:40.781Z,91.04
2017-12-20T19:31:08.306Z,90.89
2017-12-20T19:33:35.836Z,90.79
2017-12-20T19:36:03.367Z,90.72
2017-12-20T19:48:15.906Z,91.35
2017-12-20T19:50:43.428Z,91.19
2017-12-20T19:53:10.951Z,91.25
2017-12-20T19:55:38.482Z,91.08
2017-12-20T19:58:06.001Z,91.23
2017-12-20T20:00:33.535Z,91.11
2017-12-20T20:03:01.052Z,91.40
2017-12-20T20:05:28.579Z,91.38
2017-12-20T20:07:56.112Z,91.37
2017-12-20T20:10:23.635Z,91.33
2017-12-20T20:12:51.161Z,91.39
2017-12-20T20:15:18.824Z,91.41
2017-12-20T20:17:46.354Z,91.51
2017-12-20T20:20:13.974Z,91.44
2017-12-20T20:22:41.673Z,91.35
2017-12-20T20:25:09.210Z,91.48
2017-12-20T20:27:36.813Z,91.47
2017-12-20T20:30:04.346Z,91.47
2017-12-20T20:32:31.878Z,91.66
2017-12-20T20:34:59.430Z,91.65
2017-12-20T20:37:26.990Z,91.88
2017-12-20T20:39:54.513Z,92.22
2017-12-20T20:42:22.042Z,92.32
2017-12-20T20:44:49.574Z,92.27
2017-12-20T20:47:17.107Z,92.07
2017-12-20T20:49:44.634Z,92.36
2017-12-20T20:52:12.180Z,92.40
2017-12-20T20:54:39.752Z,92.39
2017-12-20T20:57:07.290Z,92.41
2017-12-20T20:59:34.858Z,92.42
2017-12-20T21:02:02.390Z,92.48
2017-12-20T21:04:29.914Z,92.28
2017-12-20T21:06:57.437Z,92.20
2017-12-20T21:09:25.122Z,92.19
2017-12-20T21:11:58.465Z,92.43
2017-12-20T21:14:25.995Z,92.36
2017-12-20T21:16:53.542Z,92.24
2017-12-20T21:19:21.102Z,92.25
2017-12-20T21:21:49.433Z,92.58
2017-12-20T21:24:16.944Z,92.78
2017-12-20T21:26:44.471Z,92.76
2017-12-20T21:29:12.057Z,92.80
2017-12-20T21:31:39.618Z,93.01
2017-12-20T21:34:07.198Z,92.98
2017-12-20T21:36:34.729Z,92.62
2017-12-20T21:39:02.248Z,92.57
2017-12-20T21:41:29.770Z,92.59
2017-12-20T21:43:57.290Z,92.70
2017-12-20T21:46:24.820Z,92.68
2017-12-20T21:48:52.363Z,92.79
2017-12-20T21:51:19.922Z,92.99
2017-12-20T21:53:47.503Z,92.95
2017-12-20T21:56:15.030Z,92.98
2017-12-20T21:58:42.548Z,93.05
2017-12-20T22:01:10.078Z,93.17
2017-12-20T22:03:37.607Z,92.94
2017-12-20T22:06:05.132Z,93.30
2017-12-20T22:08:32.682Z,93.41
2017-12-20T22:11:00.209Z,93.83
2017-12-20T22:13:28.014Z,93.61
2017-12-20T22:15:55.539Z,93.55
2017-12-20T22:18:23.105Z,93.75
2017-12-20T22:20:50.663Z,93.40
2017-12-20T22:23:18.191Z,93.77
2017-12-20T22:25:45.731Z,93.51
2017-12-20T22:28:13.258Z,93.69
2017-12-20T22:30:40.777Z,93.69
2017-12-20T22:33:08.300Z,93.91
2017-12-20T22:35:35.832Z,93.81
2017-12-20T22:38:03.365Z,93.40
2017-12-20T22:40:30.890Z,93.92
2017-12-20T22:42:58.422Z,93.71
2017-12-20T22:45:25.948Z,93.70
2017-12-20T22:47:53.478Z,93.69
2017-12-20T22:50:21.005Z,93.34
2017-12-20T22:52:48.526Z,93.47
2017-12-20T22:55:16.048Z,93.54
2017-12-20T22:57:43.564Z,93.81
2017-12-20T23:00:11.106Z,93.78
2017-12-20T23:02:38.633Z,93.95
2017-12-20T23:05:06.172Z,93.86
2017-12-20T23:07:33.691Z,93.94
2017-12-20T23:10:01.215Z,93.87
2017-12-20T23:12:28.736Z,94.06
2017-12-20T23:14:56.255Z,93.99
2017-12-20T23:17:24.503Z,93.88
2017-12-20T23:19:52.029Z,94.19
2017-12-20T23:22:19.548Z,94.22
2017-12-20T23:24:47.066Z,94.01
2017-12-20T23:27:14.589Z,94.02
2017-12-20T23:29:42.120Z,94.07
2017-12-20T23:32:09.657Z,94.23
2017-12-20T23:34:37.197Z,93.81
2017-12-20T23:37:04.724Z,94.11
2017-12-20T23:39:32.264Z,93.79
2017-12-20T23:41:59.852Z,93.90
2017-12-20T23:44:27.378Z,93.94
2017-12-20T23:46:54.935Z,94.00
2017-12-20T23:49:22.464Z,94.09
2017-12-20T23:51:50.004Z,93.99
2017-12-20T23:54:17.526Z,94.19
2017-12-20T23:56:45.057Z,94.05
2017-12-20T23:59:12.598Z,93.89
